createdAt,value
2018-07-05T00:00:27.894Z,99.70
2018-07-05T00:03:14.331Z,99.80
2018-07-05T00:06:00.883Z,99.90
2018-07-05T00:11:27.934Z,99.90
2018-07-05T00:14:14.426Z,99.90
2018-07-05T00:17:00.977Z,99.90
2018-07-05T00:19:47.742Z,99.90
2018-07-05T00:22:34.076Z,99.90
2018-07-05T00:25:20.585Z,99.90
2018-07-05T00:28:06.939Z,99.90
2018-07-05T00:30:53.912Z,99.90
2018-07-05T00:33:41.399Z,99.90
2018-07-05T00:36:27.719Z,99.90
2018-07-05T00:39:14.008Z,99.90
2018-07-05T00:42:00.485Z,99.90
2018-07-05T00:44:46.970Z,99.90
2018-07-05T00:47:33.469Z,99.90
2018-07-05T00:50:19.947Z,99.90
2018-07-05T00:53:06.436Z,99.90
2018-07-05T00:55:52.969Z,99.90
2018-07-05T00:58:39.399Z,99.90
2018-07-05T01:04:06.463Z,99.90
2018-07-05T01:06:53.006Z,99.90
2018-07-05T01:09:39.490Z,99.90
2018-07-05T01:12:25.963Z,99.90
2018-07-05T01:15:12.320Z,99.90
2018-07-05T01:17:58.764Z,99.90
2018-07-05T01:20:45.131Z,99.90
2018-07-05T01:23:31.738Z,99.90
2018-07-05T01:26:18.650Z,99.90
2018-07-05T01:29:05.285Z,99.90
2018-07-05T01:31:51.729Z,99.90
2018-07-05T01:34:38.219Z,99.90
2018-07-05T01:37:24.618Z,99.90
2018-07-05T01:40:11.050Z,99.90
2018-07-05T01:42:57.653Z,99.90
2018-07-05T01:45:44.147Z,99.90
2018-07-05T01:48:30.841Z,99.90
2018-07-05T01:51:18.027Z,99.90
2018-07-05T01:54:04.510Z,99.90
2018-07-05T01:56:51.920Z,99.90
2018-07-05T01:59:38.327Z,99.90
2018-07-05T02:02:24.714Z,99.90
2018-07-05T02:05:11.201Z,99.90
2018-07-05T02:08:00.976Z,99.90
2018-07-05T02:10:47.427Z,99.90
2018-07-05T02:13:33.856Z,99.90
2018-07-05T02:16:20.542Z,99.90
2018-07-05T02:19:07.097Z,99.90
2018-07-05T02:21:53.486Z,99.90
2018-07-05T02:24:40.043Z,99.90
2018-07-05T02:30:07.322Z,99.90
2018-07-05T02:32:53.852Z,99.90
2018-07-05T02:35:40.356Z,99.90
2018-07-05T02:38:26.970Z,99.90
2018-07-05T02:41:13.624Z,99.90
2018-07-05T02:44:00.129Z,99.90
2018-07-05T02:46:46.616Z,99.90
2018-07-05T02:49:32.996Z,99.90
2018-07-05T02:52:19.417Z,99.90
2018-07-05T02:55:05.797Z,99.90
2018-07-05T02:57:52.268Z,99.90
2018-07-05T03:00:38.955Z,99.90
2018-07-05T03:03:27.277Z,99.90
2018-07-05T03:06:13.802Z,99.90
2018-07-05T03:09:00.155Z,99.90
2018-07-05T03:14:27.266Z,99.90
2018-07-05T03:17:13.754Z,99.90
2018-07-05T03:20:00.373Z,99.90
2018-07-05T03:22:46.808Z,99.90
2018-07-05T03:25:33.180Z,99.90
2018-07-05T03:28:19.593Z,99.90
2018-07-05T03:31:06.114Z,99.90
2018-07-05T03:33:52.566Z,99.90
2018-07-05T03:36:38.912Z,99.90
2018-07-05T03:39:25.272Z,99.90
2018-07-05T03:42:12.579Z,99.90
2018-07-05T03:44:59.058Z,99.90
2018-07-05T03:47:45.592Z,99.90
2018-07-05T03:50:32.034Z,99.90
2018-07-05T03:53:18.430Z,99.90
2018-07-05T03:56:04.896Z,99.90
2018-07-05T03:58:51.431Z,99.90
2018-07-05T04:01:37.942Z,99.90
2018-07-05T04:04:24.341Z,99.90
2018-07-05T04:07:10.730Z,99.60
2018-07-05T04:09:57.898Z,99.50
2018-07-05T04:12:44.521Z,99.40
2018-07-05T04:15:31.027Z,99.50
2018-07-05T04:18:17.710Z,99.20
2018-07-05T04:21:04.492Z,99.00
2018-07-05T04:23:51.174Z,98.60
2018-07-05T04:26:37.504Z,98.30
2018-07-05T04:29:24.584Z,98.10
2018-07-05T04:32:11.094Z,98.50
2018-07-05T04:34:57.339Z,97.20
2018-07-05T04:37:43.682Z,97.10
2018-07-05T04:40:30.008Z,97.00
2018-07-05T04:43:16.829Z,97.00
2018-07-05T04:46:03.343Z,96.70
2018-07-05T04:48:49.894Z,96.80
2018-07-05T04:51:36.664Z,96.60
2018-07-05T04:54:23.271Z,97.10
2018-07-05T04:59:50.236Z,96.70
2018-07-05T05:02:36.776Z,96.80
2018-07-05T05:05:23.394Z,96.80
2018-07-05T05:08:09.926Z,97.10
2018-07-05T05:10:57.453Z,96.60
2018-07-05T05:13:43.912Z,96.20
2018-07-05T05:16:30.658Z,95.10
2018-07-05T05:19:17.266Z,94.70
2018-07-05T05:22:03.839Z,94.60
2018-07-05T05:24:50.473Z,95.00
2018-07-05T05:27:36.947Z,95.30
2018-07-05T05:30:23.596Z,94.80
2018-07-05T05:33:10.175Z,94.70
2018-07-05T05:35:56.552Z,94.10
2018-07-05T05:38:43.170Z,94.00
2018-07-05T05:41:29.699Z,93.50
2018-07-05T05:44:15.968Z,93.30
2018-07-05T05:47:02.663Z,93.30
2018-07-05T05:49:49.121Z,92.90
2018-07-05T05:52:35.865Z,93.00
2018-07-05T05:55:22.200Z,93.30
2018-07-05T05:58:08.596Z,92.60
2018-07-05T06:00:55.239Z,92.00
2018-07-05T06:03:41.919Z,91.70
2018-07-05T06:09:08.751Z,91.20
2018-07-05T06:11:55.202Z,91.30
2018-07-05T06:14:41.803Z,91.10
2018-07-05T06:17:28.347Z,90.30
2018-07-05T06:20:14.878Z,90.50
2018-07-05T06:23:01.500Z,90.20
2018-07-05T06:25:48.011Z,89.80
2018-07-05T06:28:34.512Z,90.50
2018-07-05T06:31:20.907Z,89.40
2018-07-05T06:34:07.343Z,89.40
2018-07-05T06:36:53.676Z,88.00
2018-07-05T06:39:40.193Z,88.00
2018-07-05T06:42:26.699Z,87.60
2018-07-05T06:45:13.087Z,86.50
2018-07-05T06:47:59.574Z,84.80
2018-07-05T06:50:46.283Z,84.60
2018-07-05T06:53:32.588Z,83.80
2018-07-05T06:56:19.089Z,82.40
2018-07-05T06:59:05.664Z,81.40
2018-07-05T07:01:52.072Z,80.60
2018-07-05T07:04:38.558Z,79.40
2018-07-05T07:07:25.270Z,78.60
2018-07-05T07:10:11.948Z,77.50
2018-07-05T07:12:58.418Z,76.60
2018-07-05T07:15:45.021Z,76.20
2018-07-05T07:18:31.553Z,74.80
2018-07-05T07:21:18.162Z,74.10
2018-07-05T07:24:04.613Z,75.70
2018-07-05T07:26:51.139Z,75.20
2018-07-05T07:29:37.630Z,76.80
2018-07-05T07:32:24.103Z,77.90
2018-07-05T07:35:10.634Z,77.10
2018-07-05T07:37:57.643Z,77.00
2018-07-05T07:40:44.034Z,77.50
2018-07-05T07:43:17.962Z,76.30
2018-07-05T07:45:45.896Z,75.50
2018-07-05T07:48:13.710Z,76.70
2018-07-05T07:50:41.576Z,77.50
2018-07-05T07:53:09.439Z,77.50
2018-07-05T07:55:37.296Z,77.00
2018-07-05T07:58:05.167Z,76.00
2018-07-05T08:00:33.688Z,75.30
2018-07-05T08:03:01.552Z,75.50
2018-07-05T08:05:29.375Z,75.70
2018-07-05T08:07:57.271Z,74.70
2018-07-05T08:10:25.146Z,76.00
2018-07-05T08:12:53.023Z,74.20
2018-07-05T08:15:20.844Z,74.30
2018-07-05T08:17:48.819Z,70.50
2018-07-05T08:20:16.650Z,69.60
2018-07-05T08:22:44.521Z,69.90
2018-07-05T08:25:12.405Z,70.80
2018-07-05T08:27:40.318Z,69.80
2018-07-05T08:30:08.142Z,69.10
2018-07-05T08:32:36.841Z,69.80
2018-07-05T08:35:04.697Z,68.60
2018-07-05T08:37:32.609Z,70.10
2018-07-05T08:40:00.475Z,70.10
2018-07-05T08:42:28.314Z,69.20
2018-07-05T08:44:56.239Z,68.80
2018-07-05T08:47:24.399Z,67.90
2018-07-05T08:49:52.238Z,67.70
2018-07-05T08:52:20.086Z,69.20
2018-07-05T08:54:48.059Z,70.30
2018-07-05T08:57:16.052Z,72.00
2018-07-05T08:59:43.921Z,73.40
2018-07-05T09:02:11.815Z,73.70
2018-07-05T09:04:39.635Z,74.40
2018-07-05T09:07:07.563Z,73.80
2018-07-05T09:09:35.400Z,73.90
2018-07-05T09:12:03.214Z,74.10
2018-07-05T09:14:31.183Z,73.20
2018-07-05T09:16:59.059Z,71.60
2018-07-05T09:19:26.965Z,70.30
2018-07-05T09:21:54.825Z,70.90
2018-07-05T09:24:22.701Z,71.40
2018-07-05T09:26:50.613Z,72.50
2018-07-05T09:32:05.386Z,72.10
2018-07-05T09:34:33.259Z,70.90
2018-07-05T09:37:01.467Z,69.90
2018-07-05T09:39:29.320Z,69.10
2018-07-05T09:41:57.244Z,68.70
2018-07-05T09:44:25.743Z,69.20
2018-07-05T09:46:53.613Z,70.20
2018-07-05T09:49:21.447Z,68.50
2018-07-05T09:51:49.319Z,68.10
2018-07-05T09:54:17.218Z,68.70
2018-07-05T09:56:45.164Z,68.60
2018-07-05T09:59:13.023Z,69.70
2018-07-05T10:01:40.914Z,69.00
2018-07-05T10:04:09.406Z,67.80
2018-07-05T10:06:37.239Z,67.90
2018-07-05T10:09:05.571Z,68.90
2018-07-05T10:11:33.616Z,68.90
2018-07-05T10:14:01.689Z,68.50
2018-07-05T10:16:30.159Z,67.20
2018-07-05T10:18:57.988Z,68.60
2018-07-05T10:21:25.865Z,69.50
2018-07-05T10:23:53.722Z,68.60
2018-07-05T10:26:21.942Z,67.30
2018-07-05T10:29:03.117Z,67.70
2018-07-05T10:31:49.720Z,66.30
2018-07-05T10:34:23.699Z,65.10
2018-07-05T10:36:51.557Z,65.10
2018-07-05T10:39:19.525Z,66.00
2018-07-05T10:41:59.824Z,65.80
2018-07-05T10:44:46.088Z,63.20
2018-07-05T10:47:32.530Z,63.70
2018-07-05T10:50:18.988Z,64.90
2018-07-05T10:53:06.530Z,65.10
2018-07-05T10:55:52.928Z,63.50
2018-07-05T10:58:39.356Z,64.60
2018-07-05T11:01:25.990Z,64.70
2018-07-05T11:04:12.553Z,64.20
2018-07-05T11:06:58.974Z,63.60
2018-07-05T11:09:45.325Z,64.70
2018-07-05T11:12:31.949Z,63.70
2018-07-05T11:15:18.385Z,65.10
2018-07-05T11:18:04.891Z,65.90
2018-07-05T11:20:51.459Z,66.10
2018-07-05T11:23:38.016Z,65.60
2018-07-05T11:29:04.776Z,63.30
2018-07-05T11:31:51.472Z,64.60
2018-07-05T11:34:37.848Z,64.60
2018-07-05T11:37:25.060Z,62.70
2018-07-05T11:40:11.795Z,63.40
2018-07-05T11:42:58.422Z,63.30
2018-07-05T11:45:45.220Z,64.10
2018-07-05T11:48:31.801Z,63.40
2018-07-05T11:51:18.282Z,63.10
2018-07-05T11:54:04.815Z,65.00
2018-07-05T11:56:51.373Z,65.40
2018-07-05T11:59:38.000Z,64.60
2018-07-05T12:02:24.552Z,64.10
2018-07-05T12:05:11.026Z,65.00
2018-07-05T12:07:58.721Z,63.50
2018-07-05T12:10:45.316Z,65.10
2018-07-05T12:13:32.110Z,65.20
2018-07-05T12:16:18.611Z,64.20
2018-07-05T12:19:05.075Z,64.50
2018-07-05T12:21:51.437Z,63.80
2018-07-05T12:24:37.972Z,64.00
2018-07-05T12:27:24.547Z,64.40
2018-07-05T12:30:11.275Z,64.20
2018-07-05T12:32:58.020Z,65.50
2018-07-05T12:35:44.568Z,65.20
2018-07-05T12:38:31.056Z,65.70
2018-07-05T12:41:17.620Z,66.20
2018-07-05T12:44:04.079Z,65.50
2018-07-05T12:46:50.666Z,65.70
2018-07-05T12:49:37.102Z,66.40
2018-07-05T12:52:23.659Z,65.30
2018-07-05T12:55:10.730Z,65.00
2018-07-05T12:57:57.389Z,64.80
2018-07-05T13:00:43.962Z,63.80
2018-07-05T13:06:11.140Z,62.70
2018-07-05T13:08:57.549Z,63.00
2018-07-05T13:11:44.027Z,62.20
2018-07-05T13:14:30.936Z,61.90
2018-07-05T13:17:17.484Z,63.20
2018-07-05T13:20:04.078Z,62.10
2018-07-05T13:22:50.709Z,60.80
2018-07-05T13:25:37.186Z,60.90
2018-07-05T13:28:23.647Z,60.90
2018-07-05T13:31:10.374Z,60.50
2018-07-05T13:33:57.026Z,61.80
2018-07-05T13:36:43.579Z,61.70
2018-07-05T13:39:30.010Z,61.30
2018-07-05T13:42:16.635Z,61.40
2018-07-05T13:45:03.131Z,61.70
2018-07-05T13:47:49.991Z,61.00
2018-07-05T13:50:36.515Z,60.10
2018-07-05T13:53:22.982Z,60.20
2018-07-05T13:56:09.551Z,59.60
2018-07-05T13:58:56.104Z,59.50
2018-07-05T14:01:42.631Z,58.30
2018-07-05T14:04:29.349Z,58.30
2018-07-05T14:07:15.735Z,57.80
2018-07-05T14:12:43.072Z,58.20
2018-07-05T14:15:29.651Z,59.30
2018-07-05T14:18:16.191Z,57.60
2018-07-05T14:21:04.124Z,58.10
2018-07-05T14:23:50.450Z,58.60
2018-07-05T14:26:36.962Z,57.80
2018-07-05T14:29:23.374Z,57.30
2018-07-05T14:32:09.967Z,57.20
2018-07-05T14:34:57.071Z,57.30
2018-07-05T14:37:43.524Z,57.00
2018-07-05T14:40:29.923Z,57.70
2018-07-05T14:43:16.618Z,58.30
2018-07-05T14:46:03.635Z,58.70
2018-07-05T14:48:50.307Z,58.80
2018-07-05T14:51:37.080Z,58.30
2018-07-05T14:54:24.857Z,58.20
2018-07-05T14:57:11.506Z,58.00
2018-07-05T14:59:57.972Z,58.20
2018-07-05T15:02:44.377Z,57.60
2018-07-05T15:05:30.981Z,58.30
2018-07-05T15:08:17.439Z,57.90
2018-07-05T15:11:04.133Z,58.00
2018-07-05T15:13:51.163Z,57.10
2018-07-05T15:16:37.975Z,57.80
2018-07-05T15:19:25.061Z,57.90
2018-07-05T15:22:13.045Z,58.00
2018-07-05T15:25:03.615Z,57.90
2018-07-05T15:27:50.309Z,57.70
2018-07-05T15:30:36.768Z,56.90
2018-07-05T15:33:23.182Z,56.70
2018-07-05T15:36:09.657Z,57.30
2018-07-05T15:38:56.077Z,56.60
2018-07-05T15:41:42.568Z,57.10
2018-07-05T15:44:29.469Z,58.00
2018-07-05T15:47:15.923Z,57.60
2018-07-05T15:50:02.647Z,57.90
2018-07-05T15:52:49.074Z,58.00
2018-07-05T15:55:35.524Z,58.10
2018-07-05T15:58:22.040Z,59.40
2018-07-05T16:01:09.678Z,58.40
2018-07-05T16:03:56.301Z,58.20
2018-07-05T16:06:42.705Z,58.50
2018-07-05T16:09:29.270Z,59.20
2018-07-05T16:12:15.742Z,58.50
2018-07-05T16:15:02.364Z,59.60
2018-07-05T16:17:48.891Z,59.30
2018-07-05T16:20:35.491Z,59.30
2018-07-05T16:23:22.098Z,61.10
2018-07-05T16:26:08.602Z,60.00
2018-07-05T16:28:55.058Z,65.90
2018-07-05T16:31:41.515Z,67.60
2018-07-05T16:34:27.892Z,68.90
2018-07-05T16:37:14.696Z,70.40
2018-07-05T16:40:01.660Z,71.10
2018-07-05T16:42:48.092Z,72.00
2018-07-05T16:45:34.762Z,72.00
2018-07-05T16:48:25.595Z,72.50
2018-07-05T16:51:12.228Z,73.00
2018-07-05T16:53:58.761Z,73.30
2018-07-05T16:56:45.345Z,73.90
2018-07-05T16:59:32.155Z,74.30
2018-07-05T17:02:18.890Z,74.80
2018-07-05T17:05:05.472Z,75.10
2018-07-05T17:07:51.957Z,75.30
2018-07-05T17:10:38.334Z,74.70
2018-07-05T17:13:24.997Z,74.70
2018-07-05T17:16:11.793Z,74.70
2018-07-05T17:18:58.382Z,75.10
2018-07-05T17:21:44.819Z,75.40
2018-07-05T17:24:35.618Z,75.90
2018-07-05T17:27:22.207Z,76.90
2018-07-05T17:30:08.658Z,77.20
2018-07-05T17:32:55.290Z,77.60
2018-07-05T17:35:42.128Z,78.60
2018-07-05T17:38:28.485Z,79.40
2018-07-05T17:41:15.023Z,80.00
2018-07-05T17:44:01.897Z,80.20
2018-07-05T17:46:48.646Z,81.10
2018-07-05T17:49:35.370Z,82.10
2018-07-05T17:55:02.544Z,84.00
2018-07-05T17:57:49.263Z,85.20
2018-07-05T18:03:16.495Z,86.30
2018-07-05T18:06:03.053Z,86.30
2018-07-05T18:08:49.539Z,87.50
2018-07-05T18:11:36.191Z,87.20
2018-07-05T18:14:22.723Z,87.40
2018-07-05T18:17:09.232Z,87.30
2018-07-05T18:19:56.543Z,87.30
2018-07-05T18:22:43.190Z,87.70
2018-07-05T18:25:30.033Z,87.60
2018-07-05T18:28:16.787Z,87.90
2018-07-05T18:31:03.272Z,88.20
2018-07-05T18:33:49.957Z,88.30
2018-07-05T18:36:36.450Z,88.50
2018-07-05T18:39:22.965Z,88.60
2018-07-05T18:42:09.593Z,89.10
2018-07-05T18:44:56.096Z,89.50
2018-07-05T18:47:42.658Z,90.00
2018-07-05T18:50:29.334Z,90.10
2018-07-05T18:53:15.846Z,90.40
2018-07-05T18:56:02.406Z,90.40
2018-07-05T18:58:49.128Z,90.30
2018-07-05T19:01:35.641Z,90.60
2018-07-05T19:04:22.260Z,90.40
2018-07-05T19:07:09.107Z,90.50
2018-07-05T19:22:55.679Z,90.60
2018-07-05T19:25:42.171Z,91.10
2018-07-05T19:28:28.675Z,91.30
2018-07-05T19:31:15.315Z,91.40
2018-07-05T19:34:01.827Z,91.60
2018-07-05T19:36:49.617Z,91.70
2018-07-05T19:39:36.115Z,91.80
2018-07-05T19:42:22.708Z,91.70
2018-07-05T19:45:09.214Z,91.60
2018-07-05T19:47:56.061Z,91.80
2018-07-05T19:50:42.774Z,91.90
2018-07-05T19:53:29.244Z,92.40
2018-07-05T19:56:16.021Z,92.50
2018-07-05T19:59:02.518Z,92.20
2018-07-05T20:01:49.271Z,92.40
2018-07-05T20:04:35.936Z,92.40
2018-07-05T20:07:22.683Z,92.50
2018-07-05T20:10:09.326Z,92.40
2018-07-05T20:12:55.846Z,92.20
2018-07-05T20:18:23.978Z,92.20
2018-07-05T20:21:10.497Z,92.20
2018-07-05T20:23:57.246Z,92.10
2018-07-05T20:26:43.872Z,92.00
2018-07-05T20:29:30.493Z,91.90
2018-07-05T20:32:17.064Z,91.80
2018-07-05T20:35:03.616Z,91.80
2018-07-05T20:37:50.525Z,91.80
2018-07-05T20:40:36.939Z,91.60
2018-07-05T20:43:23.437Z,91.80
2018-07-05T20:46:09.950Z,91.60
2018-07-05T20:48:56.621Z,91.70
2018-07-05T20:51:43.454Z,91.80
2018-07-05T20:54:30.052Z,91.70
2018-07-05T20:57:16.853Z,91.70
2018-07-05T21:00:03.403Z,91.70
2018-07-05T21:05:30.470Z,91.60
2018-07-05T21:08:17.372Z,91.50
2018-07-05T21:11:04.022Z,91.50
2018-07-05T21:13:50.441Z,91.50
2018-07-05T21:16:37.450Z,91.30
2018-07-05T21:19:24.097Z,91.40
2018-07-05T21:22:10.808Z,91.50
2018-07-05T21:24:57.438Z,91.30
2018-07-05T21:27:44.154Z,90.90
2018-07-05T21:30:34.221Z,90.80
2018-07-05T21:33:21.276Z,91.00
2018-07-05T21:36:07.980Z,91.00
2018-07-05T21:38:54.391Z,90.80
2018-07-05T21:41:40.934Z,90.40
2018-07-05T21:44:27.574Z,90.30
2018-07-05T21:47:14.206Z,89.70
2018-07-05T21:50:00.934Z,89.20
2018-07-05T21:52:47.771Z,88.40
2018-07-05T21:55:34.279Z,87.50
2018-07-05T21:58:20.780Z,86.50
2018-07-05T22:01:07.328Z,85.50
2018-07-05T22:03:53.947Z,85.30
2018-07-05T22:06:40.456Z,85.00
2018-07-05T22:09:26.851Z,84.40
2018-07-05T22:12:13.237Z,84.30
2018-07-05T22:14:59.899Z,84.10
2018-07-05T22:17:52.675Z,84.10
2018-07-05T22:20:44.688Z,84.20
2018-07-05T22:23:36.731Z,84.10
2018-07-05T22:26:36.735Z,84.80
2018-07-05T22:29:28.699Z,84.60
2018-07-05T22:32:15.095Z,84.80
2018-07-05T22:35:01.536Z,85.70
2018-07-05T22:37:47.901Z,85.80
2018-07-05T22:40:34.394Z,86.30
2018-07-05T22:43:21.053Z,85.80
2018-07-05T22:46:07.777Z,85.70
2018-07-05T22:48:54.230Z,85.80
2018-07-05T22:51:40.858Z,85.70
2018-07-05T22:54:27.413Z,85.60
2018-07-05T22:57:14.364Z,86.30
2018-07-05T23:00:00.987Z,85.20
2018-07-05T23:05:27.974Z,84.60
2018-07-05T23:08:14.452Z,84.30
2018-07-05T23:11:00.849Z,85.00
2018-07-05T23:13:47.333Z,85.00
2018-07-05T23:16:33.823Z,84.70
2018-07-05T23:19:20.372Z,84.90
2018-07-05T23:22:06.819Z,84.30
2018-07-05T23:27:34.137Z,84.50
2018-07-05T23:30:20.674Z,84.80
2018-07-05T23:33:07.076Z,84.60
2018-07-05T23:35:53.592Z,85.00
2018-07-05T23:38:40.068Z,85.20
2018-07-05T23:41:26.667Z,85.20
2018-07-05T23:44:13.192Z,85.60
2018-07-05T23:46:59.770Z,85.50
2018-07-05T23:52:26.769Z,85.50
2018-07-05T23:55:13.231Z,85.90
2018-07-05T23:57:59.889Z,86.00
